Flight Track Log - Related Links

Times and Time Zones

All times are in EDT time to prevent confusion due to time zone crossing. See the QXE2087 flight status page for this flight to view local times or setup timezone preferences in your user account.

Time Position Orientation Groundspeed Altitude Reporting Facility
EDT Latitude Longitude Course Direction KTS MPH feet Rate Location/Type
Sun 09:32:00 AM 46.3106 -118.8900 296° West  Level Estimated
Sun 09:33:00 AM 46.3463 -118.9906 294° West  Level Estimated
Sun 09:34:00 AM 46.3580 -119.1025 279° West  Level FlightAware Approximate
Sun 09:35:00 AM 46.3942 -119.2028 284° West  Level Estimated
Sun 09:36:00 AM 46.4303 -119.3033 290° West  Level Estimated
Sun 09:37:00 AM 46.4443 -119.4148 280° West  Level FlightAware Approximate
Sun 09:38:00 AM 46.4566 -119.5139 280° West  Level FlightAware Approximate
Sun 09:39:00 AM 46.4689 -119.6131 280° West  Level FlightAware Approximate
Sun 09:40:00 AM 46.4810 -119.7123 280° West  Level FlightAware Approximate
Sun 09:41:00 AM 46.5153 -119.8000 299° West  Level Estimated
Sun 09:42:00 AM 46.5494 -119.8878 314° West  Level Estimated
Sun 09:43:00 AM 46.5835 -119.9757 302° West  Level Estimated
Sun 09:44:00 AM 46.6175 -120.0637 326° Northwest  Level Estimated
Sun 09:45:00 AM 46.6515 -120.1519 314° West  Level Estimated
Sun 09:46:00 AM 46.6854 -120.2401 299° West  Level Estimated
Sun 09:47:00 AM 46.7192 -120.3285 306° West  Level Estimated
Sun 09:48:00 AM 46.7530 -120.4169 303° West  Level Estimated
Sun 09:49:00 AM 46.7769 -120.5120 290° West  Level FlightAware Approximate
Sun 09:50:00 AM 46.8130 -120.6054 299° West  Level Estimated
Sun 09:51:00 AM 46.8489 -120.6989 299° West  Level Estimated
Sun 09:52:00 AM 46.8848 -120.7926 299° West  Level Estimated
Sun 09:53:00 AM 46.9206 -120.8863 299° West  Level Estimated
Sun 09:54:00 AM 46.9563 -120.9802 299° West  Level Estimated
Sun 09:55:00 AM 46.9644 -121.0882 276° West  Level FlightAware Approximate
Sun 09:56:00 AM 46.9723 -121.1963 276° West  Level FlightAware Approximate
Sun 09:57:00 AM 46.9801 -121.3043 276° West  Level FlightAware Approximate
Sun 09:58:00 AM 47.0224 -121.3936 303° West  Level Estimated
Sun 09:59:00 AM 47.0647 -121.4830 290° West  Level Estimated
Sun 10:00:00 AM 47.1068 -121.5726 310° West  Level Estimated
Sun 10:01:00 AM 47.1490 -121.6623 270° West  Level Estimated
Sun 10:02:00 AM 47.1910 -121.7521 306° West  Level Estimated
Sun 10:03:00 AM 47.2330 -121.8421 301° West  Level Estimated
Sun 10:04:00 AM 47.2675 -121.9388 298° West  Level FlightAware Approximate
Sun 10:05:00 AM 47.3110 -122.0273 315° West  Level Estimated
Sun 10:06:00 AM 47.3544 -122.1160 306° West  Level Estimated
Sun 10:07:00 AM 47.3913 -122.2110 300° West  Level FlightAware Approximate
Sun 10:08:00 AM 47.4333 -122.3000 306° West  Level FlightAware Approximate
Sun 10:09:00 AM 47.4499 -122.3118 306° West  Level Estimated
Sun 10:10:00 AM 47.4499 -122.3118 306° West  Level Estimated
Sun 10:11:00 AM 47.4499 -122.3118 306° West  Level Estimated
Sun 10:12:00 AM 47.4499 -122.3118 306° West  Level Estimated
Sun 10:13:00 AM 47.4499 -122.3118 306° West  Level Estimated
Sun 10:14:00 AM 47.4499 -122.3118 306° West  Level Estimated
Sun 10:15:00 AM 47.4499 -122.3118 306° West  Level Estimated
Sun 10:16:00 AM 47.4499 -122.3118 195° South  Level Estimated
Sun 10:17:00 AM 47.4499 -122.3118 195° South  Level Estimated
Sun 10:18:00 AM 47.4499 -122.3118 195° South  Level Estimated
Sun 10:19:00 AM 47.4499 -122.3118 195° South  Level Estimated
Sun 10:20:00 AM 47.4499 -122.3118 195° South  Level Estimated
Sun 10:21:00 AM 47.4499 -122.3118 195° South  Level Estimated
Sun 10:22:00 AM 47.4499 -122.3118 195° South  Level Estimated
Sun 10:23:00 AM 47.4499 -122.3118 195° South  Level Estimated
Sun 10:24:00 AM 47.4499 -122.3118 90° East  Level Estimated
Sun 10:25:00 AM 47.4499 -122.3118 90° East  Level Estimated
Sun 10:26:00 AM 47.4499 -122.3118 90° East  Level Estimated

Login

Don't have an account? Register now (free) for customized features, flight alerts, and more!